createdAt,value
2016-11-18T00:01:00.111Z,0
2016-11-18T00:02:10.834Z,0
2016-11-18T00:03:22.039Z,0
2016-11-18T00:04:32.752Z,0
2016-11-18T00:05:43.376Z,0
2016-11-18T00:06:54.061Z,0
2016-11-18T00:08:05.190Z,0
2016-11-18T00:09:16.005Z,0
2016-11-18T00:10:26.722Z,0
2016-11-18T00:11:37.472Z,0
2016-11-18T00:12:48.203Z,0
2016-11-18T00:13:58.867Z,0
2016-11-18T00:15:09.528Z,0
2016-11-18T00:16:20.261Z,0
2016-11-18T00:17:31.294Z,0
2016-11-18T00:18:42.367Z,0
2016-11-18T00:19:53.811Z,0
2016-11-18T00:21:04.555Z,0
2016-11-18T00:22:15.639Z,0
2016-11-18T00:23:26.805Z,0
2016-11-18T00:24:37.861Z,0
2016-11-18T00:25:48.544Z,0
2016-11-18T00:27:00.178Z,0
2016-11-18T00:28:10.851Z,0
2016-11-18T00:29:21.531Z,0
2016-11-18T00:30:32.606Z,0
2016-11-18T00:31:43.309Z,0
2016-11-18T00:32:54.073Z,0
2016-11-18T00:34:04.748Z,0
2016-11-18T00:35:15.456Z,0
2016-11-18T00:36:26.102Z,0
2016-11-18T00:37:37.583Z,0
2016-11-18T00:38:49.279Z,0
2016-11-18T00:40:00.025Z,0
2016-11-18T00:41:10.801Z,0
2016-11-18T00:42:21.848Z,0
2016-11-18T00:43:33.757Z,0
2016-11-18T00:44:44.916Z,0
2016-11-18T00:45:55.605Z,0
2016-11-18T00:47:06.638Z,0
2016-11-18T00:48:17.698Z,0
2016-11-18T00:49:28.363Z,0
2016-11-18T00:50:39.080Z,0
2016-11-18T00:51:50.224Z,0
2016-11-18T00:53:01.303Z,0
2016-11-18T00:54:12.084Z,0
2016-11-18T00:55:22.750Z,0
2016-11-18T00:56:33.577Z,0
2016-11-18T00:57:44.269Z,0
2016-11-18T00:58:55.854Z,0
2016-11-18T01:00:07.375Z,0
2016-11-18T01:01:18.000Z,0
2016-11-18T01:02:28.847Z,0
2016-11-18T01:03:39.963Z,0
2016-11-18T01:04:51.016Z,0
2016-11-18T01:06:01.731Z,0
2016-11-18T01:07:12.463Z,0
2016-11-18T01:08:23.611Z,0
2016-11-18T01:09:34.351Z,0
2016-11-18T01:10:45.088Z,0
2016-11-18T01:11:55.778Z,0
2016-11-18T01:13:06.510Z,0
2016-11-18T01:14:17.186Z,0
2016-11-18T01:15:28.301Z,0
2016-11-18T01:16:39.037Z,0
2016-11-18T01:17:49.764Z,0
2016-11-18T01:19:00.481Z,0
2016-11-18T01:20:11.452Z,0
2016-11-18T01:21:22.221Z,0
2016-11-18T01:22:33.344Z,0
2016-11-18T01:23:44.014Z,0
2016-11-18T01:24:55.756Z,0
2016-11-18T01:26:06.963Z,0
2016-11-18T01:27:18.549Z,0
2016-11-18T01:28:29.316Z,0
2016-11-18T01:29:40.403Z,0
2016-11-18T01:30:51.148Z,0
2016-11-18T01:32:01.907Z,0
2016-11-18T01:33:12.653Z,0
2016-11-18T01:34:23.673Z,0
2016-11-18T01:35:34.350Z,0
2016-11-18T01:36:45.104Z,0
2016-11-18T01:37:56.229Z,0
2016-11-18T01:39:07.352Z,0
2016-11-18T01:40:18.364Z,0
2016-11-18T01:41:29.083Z,0
2016-11-18T01:42:39.825Z,0
2016-11-18T01:43:50.595Z,0
2016-11-18T01:45:01.695Z,0
2016-11-18T01:46:12.474Z,0
2016-11-18T01:47:23.183Z,0
2016-11-18T01:48:34.977Z,0
2016-11-18T01:49:46.157Z,0
2016-11-18T01:50:57.577Z,0
2016-11-18T01:52:08.651Z,0
2016-11-18T01:53:20.155Z,0
2016-11-18T01:54:30.904Z,0
2016-11-18T01:55:42.021Z,0
2016-11-18T01:56:52.740Z,0
2016-11-18T01:58:03.452Z,0
2016-11-18T01:59:17.601Z,0
2016-11-18T02:00:28.375Z,0
2016-11-18T02:01:39.205Z,0
2016-11-18T02:02:49.990Z,0
2016-11-18T02:04:00.747Z,0
2016-11-18T02:05:11.493Z,0
2016-11-18T02:06:22.599Z,0
2016-11-18T02:07:33.315Z,0
2016-11-18T02:08:44.057Z,0
2016-11-18T02:09:54.761Z,0
2016-11-18T02:11:05.422Z,0
2016-11-18T02:12:16.151Z,0
2016-11-18T02:13:26.958Z,0
2016-11-18T02:14:37.726Z,0
2016-11-18T02:15:48.451Z,0
2016-11-18T02:16:59.178Z,0
2016-11-18T02:18:09.914Z,0
2016-11-18T02:19:20.628Z,0
2016-11-18T02:20:31.356Z,0
2016-11-18T02:21:42.778Z,0
2016-11-18T02:22:53.441Z,0
2016-11-18T02:24:04.243Z,0
2016-11-18T02:25:15.065Z,0
2016-11-18T02:26:26.210Z,0
2016-11-18T02:27:37.698Z,0
2016-11-18T02:28:48.770Z,0
2016-11-18T02:30:03.274Z,0
2016-11-18T02:31:14.027Z,0
2016-11-18T02:32:24.742Z,0
2016-11-18T02:33:35.451Z,0
2016-11-18T02:34:46.110Z,0
2016-11-18T02:35:57.552Z,0
2016-11-18T02:37:08.363Z,0
2016-11-18T02:38:19.073Z,0
2016-11-18T02:39:29.733Z,0
2016-11-18T02:40:40.468Z,0
2016-11-18T02:41:51.541Z,0
2016-11-18T02:43:02.723Z,0
2016-11-18T02:44:13.816Z,0
2016-11-18T02:45:24.510Z,0
2016-11-18T02:46:35.564Z,0
2016-11-18T02:47:46.650Z,0
2016-11-18T02:48:57.834Z,0
2016-11-18T02:50:08.528Z,0
2016-11-18T02:51:19.593Z,0
2016-11-18T02:52:30.346Z,0
2016-11-18T02:53:41.487Z,0
2016-11-18T02:54:52.858Z,0
2016-11-18T02:56:04.328Z,0
2016-11-18T02:57:15.057Z,0
2016-11-18T02:58:25.852Z,0
2016-11-18T02:59:37.023Z,0
2016-11-18T03:00:48.251Z,0
2016-11-18T03:01:59.348Z,0
2016-11-18T03:03:10.393Z,0
2016-11-18T03:04:21.023Z,0
2016-11-18T03:05:32.502Z,0
2016-11-18T03:06:43.708Z,0
2016-11-18T03:07:54.739Z,0
2016-11-18T03:09:05.388Z,0
2016-11-18T03:10:16.100Z,0
2016-11-18T03:11:26.807Z,0
2016-11-18T03:12:37.954Z,0
2016-11-18T03:13:48.988Z,0
2016-11-18T03:14:59.727Z,0
2016-11-18T03:16:10.478Z,0
2016-11-18T03:17:23.418Z,0
2016-11-18T03:18:34.875Z,0
2016-11-18T03:19:46.740Z,0
2016-11-18T03:20:57.864Z,0
2016-11-18T03:22:08.890Z,0
2016-11-18T03:23:20.053Z,0
2016-11-18T03:24:30.768Z,0
2016-11-18T03:25:41.440Z,0
2016-11-18T03:26:52.098Z,0
2016-11-18T03:28:03.578Z,0
2016-11-18T03:29:14.308Z,0
2016-11-18T03:30:24.994Z,0
2016-11-18T03:31:35.681Z,0
2016-11-18T03:32:46.794Z,0
2016-11-18T03:33:57.550Z,0
2016-11-18T03:35:08.790Z,0
2016-11-18T03:36:19.577Z,0
2016-11-18T03:37:30.615Z,0
2016-11-18T03:38:41.683Z,0
2016-11-18T03:39:52.417Z,0
2016-11-18T03:41:03.142Z,0
2016-11-18T03:42:13.897Z,0
2016-11-18T03:43:24.966Z,0
2016-11-18T03:44:36.065Z,0
2016-11-18T03:45:47.577Z,0
2016-11-18T03:46:58.672Z,0
2016-11-18T03:48:09.326Z,0
2016-11-18T03:49:20.400Z,0
2016-11-18T03:50:31.125Z,0
2016-11-18T03:51:41.777Z,0
2016-11-18T03:52:52.468Z,0
2016-11-18T03:54:04.328Z,0
2016-11-18T03:55:15.435Z,0
2016-11-18T03:56:26.131Z,0
2016-11-18T03:57:37.317Z,0
2016-11-18T03:58:48.032Z,0
2016-11-18T03:59:59.984Z,0
2016-11-18T04:01:11.378Z,0
2016-11-18T04:02:22.447Z,0
2016-11-18T04:03:33.171Z,0
2016-11-18T04:04:44.307Z,0
2016-11-18T04:05:55.111Z,0
2016-11-18T04:07:06.338Z,0
2016-11-18T04:08:17.791Z,0
2016-11-18T04:09:28.503Z,0
2016-11-18T04:10:39.640Z,0
2016-11-18T04:11:50.759Z,0
2016-11-18T04:13:01.516Z,0
2016-11-18T04:14:12.584Z,0
2016-11-18T04:15:23.738Z,0
2016-11-18T04:16:34.876Z,0
2016-11-18T04:17:46.074Z,0
2016-11-18T04:18:56.805Z,0
2016-11-18T04:20:07.483Z,0
2016-11-18T04:21:18.244Z,0
2016-11-18T04:22:28.963Z,0
2016-11-18T04:23:39.843Z,0
2016-11-18T04:24:50.615Z,0
2016-11-18T04:26:01.720Z,0
2016-11-18T04:27:12.348Z,0
2016-11-18T04:28:23.059Z,0
2016-11-18T04:29:34.238Z,0
2016-11-18T04:30:45.419Z,0
2016-11-18T04:31:56.154Z,0
2016-11-18T04:33:06.892Z,0
2016-11-18T04:34:17.596Z,0
2016-11-18T04:35:28.671Z,0
2016-11-18T04:36:39.839Z,0
2016-11-18T04:37:51.346Z,0
2016-11-18T04:39:02.467Z,0
2016-11-18T04:40:13.591Z,0
2016-11-18T04:41:24.756Z,0
2016-11-18T04:42:35.947Z,0
2016-11-18T04:43:47.003Z,0
2016-11-18T04:44:57.670Z,0
2016-11-18T04:46:08.748Z,0
2016-11-18T04:47:19.569Z,0
2016-11-18T04:48:30.663Z,0
2016-11-18T04:49:41.320Z,0
2016-11-18T04:50:53.248Z,0
2016-11-18T04:52:03.993Z,0
2016-11-18T04:53:14.804Z,0
2016-11-18T04:54:26.247Z,0
2016-11-18T04:55:37.367Z,0
2016-11-18T04:56:48.071Z,0
2016-11-18T04:57:59.005Z,0
2016-11-18T04:59:10.054Z,0
2016-11-18T05:00:20.785Z,0
2016-11-18T05:01:31.454Z,0
2016-11-18T05:02:42.139Z,0
2016-11-18T05:03:52.808Z,0
2016-11-18T05:05:03.933Z,0
2016-11-18T05:06:14.650Z,0
2016-11-18T05:07:25.309Z,0
2016-11-18T05:08:36.887Z,0
2016-11-18T05:09:48.398Z,0
2016-11-18T05:10:59.190Z,0
2016-11-18T05:12:10.428Z,0
2016-11-18T05:13:21.529Z,0
2016-11-18T05:14:32.557Z,0
2016-11-18T05:15:43.261Z,0
2016-11-18T05:16:54.441Z,0
2016-11-18T05:18:06.942Z,0
2016-11-18T05:19:18.024Z,0
2016-11-18T05:20:29.210Z,0
2016-11-18T05:21:40.306Z,0
2016-11-18T05:22:51.955Z,0
2016-11-18T05:24:03.478Z,0
2016-11-18T05:25:14.141Z,0
2016-11-18T05:26:24.785Z,0
2016-11-18T05:27:35.888Z,0
2016-11-18T05:28:47.429Z,0
2016-11-18T05:29:58.436Z,0
2016-11-18T05:31:09.124Z,0
2016-11-18T05:32:20.208Z,0
2016-11-18T05:33:30.957Z,0
2016-11-18T05:34:42.138Z,0
2016-11-18T05:35:52.836Z,0
2016-11-18T05:37:03.965Z,0
2016-11-18T05:38:14.669Z,0
2016-11-18T05:39:25.345Z,0
2016-11-18T05:40:36.171Z,0
2016-11-18T05:41:47.244Z,0
2016-11-18T05:42:57.997Z,0
2016-11-18T05:44:09.078Z,0
2016-11-18T05:45:19.733Z,0
2016-11-18T05:46:30.556Z,0
2016-11-18T05:47:41.998Z,0
2016-11-18T05:48:53.439Z,0
2016-11-18T05:50:04.606Z,0
2016-11-18T05:51:15.892Z,0
2016-11-18T05:52:26.552Z,0
2016-11-18T05:53:37.269Z,0
2016-11-18T05:54:48.401Z,0
2016-11-18T05:55:59.460Z,0
2016-11-18T05:57:10.148Z,0
2016-11-18T05:58:21.275Z,0
2016-11-18T05:59:31.996Z,0
2016-11-18T06:00:43.457Z,0
2016-11-18T06:01:54.524Z,0
2016-11-18T06:03:05.133Z,0
2016-11-18T06:04:15.842Z,0
2016-11-18T06:07:08.703Z,0
2016-11-18T06:08:19.771Z,0
2016-11-18T06:09:30.953Z,0
2016-11-18T06:10:41.762Z,0
2016-11-18T06:11:52.443Z,0
2016-11-18T06:13:03.917Z,0
2016-11-18T06:14:14.622Z,0
2016-11-18T06:15:25.664Z,0
2016-11-18T06:16:36.267Z,0
2016-11-18T06:17:46.987Z,0
2016-11-18T06:18:58.082Z,0
2016-11-18T06:20:08.763Z,0
2016-11-18T06:21:19.972Z,0
2016-11-18T06:22:31.455Z,0
2016-11-18T06:23:42.179Z,0
2016-11-18T06:24:52.900Z,0
2016-11-18T06:26:03.962Z,0
2016-11-18T06:27:14.631Z,0
2016-11-18T06:28:25.642Z,0
2016-11-18T06:29:36.708Z,0
2016-11-18T06:30:47.799Z,0
2016-11-18T06:31:58.593Z,0
2016-11-18T06:33:09.240Z,0
2016-11-18T06:34:21.245Z,0
2016-11-18T06:35:32.665Z,0
2016-11-18T06:36:43.359Z,0
2016-11-18T06:37:54.093Z,0
2016-11-18T06:39:04.981Z,0
2016-11-18T06:40:16.109Z,0
2016-11-18T06:41:27.772Z,0
2016-11-18T06:42:38.488Z,0
2016-11-18T06:43:49.227Z,0
2016-11-18T06:45:00.380Z,0
2016-11-18T06:46:11.063Z,0
2016-11-18T06:47:22.630Z,0
2016-11-18T06:48:33.727Z,0
2016-11-18T06:49:44.425Z,0
2016-11-18T06:50:55.177Z,0
2016-11-18T06:52:05.829Z,0
2016-11-18T06:53:16.930Z,0
2016-11-18T06:54:27.603Z,0
2016-11-18T06:55:39.970Z,0
2016-11-18T06:56:50.701Z,0
2016-11-18T06:58:01.907Z,0
2016-11-18T06:59:12.578Z,0
2016-11-18T07:00:23.661Z,0
2016-11-18T07:01:34.368Z,0
2016-11-18T07:02:45.110Z,0
2016-11-18T07:03:56.173Z,0
2016-11-18T07:05:07.401Z,0
2016-11-18T07:06:18.811Z,0
2016-11-18T07:07:29.947Z,0
2016-11-18T07:08:40.780Z,0
2016-11-18T07:09:51.439Z,0
2016-11-18T07:11:02.111Z,0
2016-11-18T07:12:12.843Z,0
2016-11-18T07:13:23.550Z,0
2016-11-18T07:14:34.782Z,0
2016-11-18T07:15:45.852Z,0
2016-11-18T07:16:56.934Z,0
2016-11-18T07:18:08.049Z,0
2016-11-18T07:19:18.710Z,0
2016-11-18T07:20:29.404Z,0
2016-11-18T07:21:40.131Z,0
2016-11-18T07:22:50.781Z,0
2016-11-18T07:24:01.463Z,0
2016-11-18T07:25:12.120Z,0
2016-11-18T07:26:23.293Z,0
2016-11-18T07:27:33.973Z,0
2016-11-18T07:28:45.037Z,0
2016-11-18T07:29:56.057Z,0
2016-11-18T07:31:06.807Z,0
2016-11-18T07:32:19.070Z,0
2016-11-18T07:33:30.615Z,0
2016-11-18T07:34:42.040Z,0
2016-11-18T07:35:53.647Z,0
2016-11-18T07:37:04.391Z,0
2016-11-18T07:38:15.200Z,0
2016-11-18T07:39:25.934Z,0
2016-11-18T07:40:36.682Z,0
2016-11-18T07:41:47.392Z,0
2016-11-18T07:42:58.045Z,0
2016-11-18T07:44:09.150Z,0
2016-11-18T07:45:19.797Z,0
2016-11-18T07:46:31.301Z,0
2016-11-18T07:47:43.776Z,0
2016-11-18T07:48:54.453Z,4
2016-11-18T07:50:05.290Z,4
2016-11-18T07:51:16.006Z,0
2016-11-18T07:52:27.081Z,4
2016-11-18T07:53:38.175Z,4
2016-11-18T07:54:50.292Z,4
2016-11-18T07:56:01.349Z,8
2016-11-18T07:57:12.498Z,8
2016-11-18T07:58:24.031Z,12
2016-11-18T07:59:35.297Z,12
2016-11-18T08:00:46.333Z,24
2016-11-18T08:01:57.569Z,32
2016-11-18T08:03:08.667Z,44
2016-11-18T08:04:19.755Z,64
2016-11-18T08:05:30.868Z,80
2016-11-18T08:06:41.580Z,100
2016-11-18T08:07:52.365Z,116
2016-11-18T08:09:03.509Z,116
2016-11-18T08:10:14.612Z,128
2016-11-18T08:11:26.081Z,136
2016-11-18T08:12:37.206Z,152
2016-11-18T08:13:48.345Z,156
2016-11-18T08:14:59.132Z,168
2016-11-18T08:16:09.882Z,192
2016-11-18T08:17:20.975Z,212
2016-11-18T08:18:31.642Z,236
2016-11-18T08:19:42.473Z,248
2016-11-18T08:20:53.978Z,252
2016-11-18T08:22:04.647Z,308
2016-11-18T08:23:16.088Z,276
2016-11-18T08:24:27.265Z,228
2016-11-18T08:25:38.429Z,244
2016-11-18T08:26:49.442Z,312
2016-11-18T08:28:00.165Z,440
2016-11-18T08:29:11.331Z,664
2016-11-18T08:30:22.072Z,824
2016-11-18T08:31:33.231Z,908
2016-11-18T08:32:44.347Z,916
2016-11-18T08:33:55.104Z,904
2016-11-18T08:35:06.282Z,1028
2016-11-18T08:36:16.895Z,932
2016-11-18T08:37:27.995Z,952
2016-11-18T08:38:38.737Z,1220
2016-11-18T08:39:49.512Z,1320
2016-11-18T08:41:01.013Z,1404
2016-11-18T08:42:12.134Z,1512
2016-11-18T08:43:23.385Z,1552
2016-11-18T08:44:34.138Z,1536
2016-11-18T08:45:45.257Z,1524
2016-11-18T08:46:55.930Z,1732
2016-11-18T08:48:07.049Z,1472
2016-11-18T08:49:18.206Z,1188
2016-11-18T08:50:28.961Z,1436
2016-11-18T08:51:39.693Z,1360
2016-11-18T08:52:50.449Z,1252
2016-11-18T08:54:01.620Z,1168
2016-11-18T08:55:12.658Z,1156
2016-11-18T08:56:23.351Z,1720
2016-11-18T08:57:34.736Z,1832
2016-11-18T08:58:45.878Z,2256
2016-11-18T08:59:56.617Z,2416
2016-11-18T09:01:07.408Z,2272
2016-11-18T09:02:18.521Z,2580
2016-11-18T09:03:29.225Z,3292
2016-11-18T09:04:40.308Z,3204
2016-11-18T09:05:52.121Z,2968
2016-11-18T09:07:03.629Z,3372
2016-11-18T09:08:14.369Z,3680
2016-11-18T09:09:25.407Z,3556
2016-11-18T09:10:36.563Z,3420
2016-11-18T09:11:47.211Z,3356
2016-11-18T09:12:58.787Z,3200
2016-11-18T09:14:09.472Z,2984
2016-11-18T09:15:20.958Z,2836
2016-11-18T09:16:32.274Z,2996
2016-11-18T09:17:43.368Z,3200
2016-11-18T09:18:54.419Z,3544
2016-11-18T09:20:05.553Z,4448
2016-11-18T09:21:16.595Z,4428
2016-11-18T09:22:27.354Z,4304
2016-11-18T09:23:38.450Z,4272
2016-11-18T09:24:49.627Z,4168
2016-11-18T09:26:00.760Z,4280
2016-11-18T09:27:11.817Z,4452
2016-11-18T09:28:22.923Z,4096
2016-11-18T09:29:34.060Z,4788
2016-11-18T09:30:45.086Z,6216
2016-11-18T09:31:56.123Z,6132
2016-11-18T09:33:06.742Z,6300
2016-11-18T09:34:17.874Z,4556
2016-11-18T09:35:28.958Z,4032
2016-11-18T09:36:40.167Z,3532
2016-11-18T09:37:51.290Z,2812
2016-11-18T09:39:03.170Z,2292
2016-11-18T09:40:13.893Z,2240
2016-11-18T09:41:24.545Z,2692
2016-11-18T09:42:36.215Z,2396
2016-11-18T09:43:46.931Z,1960
2016-11-18T09:44:57.661Z,1992
2016-11-18T09:46:08.431Z,2348
2016-11-18T09:47:19.119Z,3492
2016-11-18T09:48:29.905Z,3488
2016-11-18T09:49:40.593Z,3304
2016-11-18T09:50:51.662Z,3084
2016-11-18T09:52:02.834Z,2512
2016-11-18T09:53:13.900Z,2672
2016-11-18T09:54:24.983Z,2932
2016-11-18T09:55:36.040Z,3476
2016-11-18T09:56:47.129Z,3072
2016-11-18T09:57:57.865Z,3688
2016-11-18T09:59:08.534Z,4392
2016-11-18T10:00:19.330Z,4524
2016-11-18T10:01:30.827Z,4932
2016-11-18T10:02:41.623Z,4660
2016-11-18T10:03:52.920Z,5300
2016-11-18T10:05:03.598Z,6520
2016-11-18T10:06:14.353Z,6900
2016-11-18T10:07:25.439Z,7560
2016-11-18T10:08:36.681Z,7528
2016-11-18T10:09:47.789Z,6212
2016-11-18T10:10:58.856Z,5776
2016-11-18T10:12:09.651Z,5640
2016-11-18T10:13:20.329Z,6512
2016-11-18T10:15:56.576Z,6516
2016-11-18T10:17:07.698Z,7520
2016-11-18T10:18:18.470Z,7708
2016-11-18T10:19:30.753Z,8324
2016-11-18T10:20:41.818Z,7316
2016-11-18T10:21:52.915Z,6756
2016-11-18T10:23:03.677Z,5864
2016-11-18T10:24:15.252Z,5560
2016-11-18T10:25:25.962Z,5468
2016-11-18T10:26:36.627Z,5644
2016-11-18T10:27:47.346Z,7168
2016-11-18T10:28:58.174Z,8492
2016-11-18T10:30:24.595Z,9992
2016-11-18T10:31:35.680Z,12364
2016-11-18T10:32:47.225Z,14528
2016-11-18T10:33:57.875Z,16064
2016-11-18T10:35:08.550Z,16660
2016-11-18T10:36:19.779Z,15224
2016-11-18T10:37:30.520Z,16672
2016-11-18T10:38:42.386Z,16076
2016-11-18T10:39:53.268Z,15536
2016-11-18T10:41:04.368Z,19264
2016-11-18T10:42:15.103Z,24480
2016-11-18T10:43:25.846Z,25248
2016-11-18T10:44:36.536Z,24288
2016-11-18T10:45:48.087Z,22944
2016-11-18T10:46:59.594Z,20576
2016-11-18T10:48:10.373Z,16560
2016-11-18T10:49:21.056Z,18272
2016-11-18T10:50:32.285Z,14680
2016-11-18T10:51:44.359Z,11068
2016-11-18T10:52:55.071Z,10728
2016-11-18T10:54:06.239Z,9820
2016-11-18T10:55:16.946Z,9684
2016-11-18T10:56:27.659Z,10856
2016-11-18T10:57:38.800Z,10536
2016-11-18T10:58:49.910Z,9600
2016-11-18T11:00:01.446Z,7740
2016-11-18T11:01:12.561Z,6800
2016-11-18T11:02:23.635Z,6996
2016-11-18T11:03:34.908Z,7460
2016-11-18T11:04:45.656Z,7224
2016-11-18T11:05:56.433Z,7772
2016-11-18T11:07:07.073Z,8528
2016-11-18T11:08:18.223Z,12212
2016-11-18T11:09:29.491Z,13616
2016-11-18T11:10:40.944Z,13184
2016-11-18T11:11:51.697Z,14148
2016-11-18T11:13:02.463Z,12796
2016-11-18T11:14:13.182Z,11064
2016-11-18T11:15:25.134Z,8752
2016-11-18T11:16:36.248Z,7896
2016-11-18T11:17:47.339Z,10036
2016-11-18T11:18:58.599Z,13240
2016-11-18T11:20:10.111Z,13092
2016-11-18T11:21:21.404Z,13708
2016-11-18T11:22:32.485Z,14460
2016-11-18T11:23:58.454Z,18048
2016-11-18T11:25:09.122Z,21856
2016-11-18T11:26:19.860Z,23424
2016-11-18T11:27:30.973Z,24288
2016-11-18T11:28:41.693Z,24704
2016-11-18T11:29:52.809Z,22496
2016-11-18T11:31:03.590Z,21216
2016-11-18T11:32:14.834Z,20864
2016-11-18T11:33:25.503Z,25504
2016-11-18T11:34:36.912Z,28832
2016-11-18T11:35:47.632Z,32032
2016-11-18T11:36:58.893Z,28288
2016-11-18T11:38:10.771Z,19872
2016-11-18T11:39:21.827Z,14684
2016-11-18T11:40:32.918Z,13108
2016-11-18T11:41:43.636Z,14160
2016-11-18T11:42:54.365Z,13068
2016-11-18T11:44:05.519Z,13308
2016-11-18T11:45:16.178Z,18304
2016-11-18T11:46:26.929Z,29120
2016-11-18T11:47:38.051Z,50464
2016-11-18T11:48:48.795Z,40448
2016-11-18T11:49:59.664Z,36672
2016-11-18T11:51:10.344Z,34464
2016-11-18T11:52:21.063Z,29088
2016-11-18T11:53:32.654Z,30080
2016-11-18T11:54:43.375Z,27968
2016-11-18T11:55:54.627Z,25216
2016-11-18T11:57:05.691Z,25696
2016-11-18T11:58:16.440Z,24832
2016-11-18T11:59:27.533Z,21056
2016-11-18T12:00:38.196Z,17664
2016-11-18T12:01:49.304Z,18272
2016-11-18T12:03:00.789Z,18112
2016-11-18T12:04:11.487Z,18752
2016-11-18T12:05:22.636Z,18112
2016-11-18T12:06:33.381Z,16780
2016-11-18T12:07:44.775Z,13804
2016-11-18T12:08:55.495Z,15584
2016-11-18T12:10:06.650Z,17568
2016-11-18T12:11:18.100Z,18496
2016-11-18T12:12:29.181Z,18496
2016-11-18T12:13:39.956Z,24192
2016-11-18T12:14:51.538Z,26080
2016-11-18T12:16:02.633Z,22720
2016-11-18T12:17:13.419Z,19488
2016-11-18T12:18:24.106Z,27616
2016-11-18T12:19:35.589Z,30752
2016-11-18T12:20:47.255Z,21184
2016-11-18T12:21:58.015Z,22464
2016-11-18T12:23:09.144Z,28512
2016-11-18T12:24:19.852Z,28128
2016-11-18T12:25:30.904Z,24000
2016-11-18T12:26:41.609Z,27552
2016-11-18T12:27:52.648Z,25408
2016-11-18T12:29:03.325Z,24352
2016-11-18T12:30:14.055Z,22688
2016-11-18T12:31:24.836Z,21920
2016-11-18T12:32:35.843Z,22528
2016-11-18T12:33:46.619Z,23168
2016-11-18T12:34:57.712Z,39424
2016-11-18T12:36:08.423Z,32992
2016-11-18T12:37:19.915Z,33760
2016-11-18T12:38:31.156Z,31456
2016-11-18T12:39:42.232Z,26048
2016-11-18T12:40:52.846Z,22432
2016-11-18T12:42:03.927Z,19712
2016-11-18T12:43:14.902Z,19776
2016-11-18T12:44:25.614Z,21216
2016-11-18T12:45:36.696Z,15812
2016-11-18T12:46:47.414Z,15880
2016-11-18T12:47:58.142Z,21824
2016-11-18T12:49:09.221Z,29600
2016-11-18T12:50:21.122Z,26112
2016-11-18T12:51:31.917Z,23648
2016-11-18T12:52:43.930Z,20832
2016-11-18T12:53:54.691Z,19168
2016-11-18T12:55:06.073Z,20352
2016-11-18T12:56:16.778Z,17760
2016-11-18T12:57:27.466Z,15812
2016-11-18T12:58:38.130Z,13748
2016-11-18T12:59:48.746Z,14592
2016-11-18T13:00:59.861Z,18432
2016-11-18T13:02:10.532Z,23360
2016-11-18T13:03:21.281Z,28480
2016-11-18T13:04:45.141Z,42336
2016-11-18T13:05:56.295Z,48192
2016-11-18T13:07:07.380Z,46784
2016-11-18T13:08:18.019Z,40480
2016-11-18T13:09:28.768Z,32128
2016-11-18T13:10:39.792Z,27424
2016-11-18T13:11:51.692Z,26272
2016-11-18T13:13:02.744Z,26784
2016-11-18T13:14:13.497Z,39040
2016-11-18T13:15:25.167Z,45024
2016-11-18T13:16:35.879Z,43808
2016-11-18T13:17:46.726Z,43712
2016-11-18T13:18:57.373Z,38656
2016-11-18T13:20:08.036Z,35968
2016-11-18T13:21:18.740Z,34944
2016-11-18T13:22:30.194Z,41024
2016-11-18T13:23:40.812Z,42016
2016-11-18T13:24:51.521Z,36128
2016-11-18T13:26:02.664Z,30976
2016-11-18T13:27:14.413Z,28320
2016-11-18T13:28:26.250Z,25984
2016-11-18T13:29:37.549Z,24192
2016-11-18T13:30:48.239Z,23136
2016-11-18T13:31:59.396Z,24512
2016-11-18T13:33:10.111Z,28192
2016-11-18T13:34:21.357Z,26496
2016-11-18T13:35:32.537Z,26912
2016-11-18T13:36:43.305Z,28512
2016-11-18T13:37:54.840Z,28416
2016-11-18T13:39:05.619Z,31776
2016-11-18T13:40:29.928Z,32608
2016-11-18T13:41:40.638Z,28736
2016-11-18T13:42:51.937Z,26880
2016-11-18T13:44:03.051Z,28992
2016-11-18T13:45:14.295Z,32064
2016-11-18T13:46:25.058Z,22400
2016-11-18T13:47:35.680Z,20992
2016-11-18T13:48:47.272Z,24032
2016-11-18T13:49:58.378Z,18848
2016-11-18T13:51:09.080Z,18240
2016-11-18T13:52:19.925Z,19744
2016-11-18T13:53:30.979Z,18208
2016-11-18T13:54:42.062Z,19264
2016-11-18T13:55:53.146Z,24768
2016-11-18T13:57:04.973Z,36992
2016-11-18T13:58:16.232Z,31328
2016-11-18T13:59:27.367Z,29760
2016-11-18T14:00:38.445Z,37312
2016-11-18T14:01:49.178Z,37536
2016-11-18T14:03:00.429Z,27040
2016-11-18T14:04:11.522Z,27392
2016-11-18T14:05:22.759Z,32992
2016-11-18T14:06:33.474Z,29792
2016-11-18T14:07:44.662Z,24608
2016-11-18T14:08:55.706Z,22688
2016-11-18T14:10:06.555Z,24768
2016-11-18T14:11:17.635Z,28384
2016-11-18T14:12:28.816Z,24544
2016-11-18T14:13:39.510Z,23008
2016-11-18T14:14:50.607Z,21312
2016-11-18T14:16:01.291Z,18752
2016-11-18T14:17:12.433Z,21888
2016-11-18T14:18:23.806Z,26336
2016-11-18T14:19:34.447Z,22912
2016-11-18T14:20:45.156Z,21152
2016-11-18T14:21:56.354Z,21280
2016-11-18T14:23:07.111Z,21184
2016-11-18T14:24:18.801Z,24960
2016-11-18T14:25:29.522Z,24544
2016-11-18T14:26:40.174Z,19776
2016-11-18T14:27:50.922Z,18176
2016-11-18T14:29:01.596Z,17728
2016-11-18T14:30:12.395Z,17404
2016-11-18T14:31:23.481Z,22336
2016-11-18T14:32:34.205Z,29984
2016-11-18T14:33:45.423Z,32192
2016-11-18T14:34:56.498Z,27680
2016-11-18T14:36:07.180Z,20192
2016-11-18T14:37:17.898Z,15292
2016-11-18T14:38:28.653Z,19104
2016-11-18T14:39:39.448Z,21056
2016-11-18T14:40:50.204Z,21696
2016-11-18T14:42:01.310Z,20416
2016-11-18T14:43:12.387Z,16656
2016-11-18T14:44:23.439Z,14224
2016-11-18T14:45:34.941Z,13956
2016-11-18T14:46:45.683Z,16608
2016-11-18T14:47:56.785Z,20640
2016-11-18T14:49:07.520Z,22048
2016-11-18T14:50:18.230Z,23168
2016-11-18T14:51:29.393Z,21920
2016-11-18T14:52:40.084Z,21952
2016-11-18T14:53:51.149Z,20384
2016-11-18T14:55:01.785Z,17952
2016-11-18T14:56:12.440Z,17888
2016-11-18T14:57:23.552Z,15332
2016-11-18T14:58:34.767Z,12912
2016-11-18T14:59:45.504Z,12644
2016-11-18T15:00:56.556Z,15108
2016-11-18T15:02:07.345Z,14804
2016-11-18T15:03:18.168Z,14552
2016-11-18T15:04:29.275Z,13760
2016-11-18T15:05:40.305Z,14812
2016-11-18T15:06:51.513Z,15708
2016-11-18T15:08:02.199Z,15124
2016-11-18T15:09:12.944Z,20544
2016-11-18T15:10:39.458Z,30688
2016-11-18T15:11:50.163Z,37696
2016-11-18T15:13:00.915Z,43648
2016-11-18T15:14:11.975Z,39264
2016-11-18T15:15:23.283Z,33984
2016-11-18T15:16:34.435Z,37056
2016-11-18T15:17:45.512Z,36960
2016-11-18T15:18:56.185Z,32800
2016-11-18T15:20:07.435Z,27744
2016-11-18T15:21:18.526Z,22976
2016-11-18T15:22:29.598Z,21696
2016-11-18T15:23:40.286Z,22368
2016-11-18T15:24:50.998Z,16652
2016-11-18T15:26:01.662Z,13000
2016-11-18T15:27:12.467Z,11816
2016-11-18T15:28:23.734Z,12516
2016-11-18T15:29:34.881Z,14052
2016-11-18T15:30:45.605Z,17120
2016-11-18T15:31:56.892Z,24512
2016-11-18T15:33:07.981Z,43360
2016-11-18T15:34:19.085Z,76000
2016-11-18T15:35:44.716Z,72544
2016-11-18T15:36:55.375Z,47360
2016-11-18T15:38:06.797Z,30208
2016-11-18T15:39:18.843Z,22880
2016-11-18T15:40:29.590Z,22336
2016-11-18T15:41:40.264Z,23712
2016-11-18T15:42:51.069Z,20864
2016-11-18T15:44:02.136Z,17092
2016-11-18T15:45:12.827Z,16356
2016-11-18T15:46:23.917Z,18144
2016-11-18T15:47:34.585Z,23904
2016-11-18T15:48:46.213Z,28576
2016-11-18T15:49:56.911Z,30784
2016-11-18T15:51:07.996Z,33184
2016-11-18T15:52:19.467Z,30752
2016-11-18T15:53:30.665Z,31360
2016-11-18T15:54:41.449Z,32960
2016-11-18T15:55:52.123Z,37056
2016-11-18T15:57:03.374Z,37856
2016-11-18T15:58:14.751Z,30496
2016-11-18T15:59:25.840Z,22944
2016-11-18T16:00:36.909Z,19296
2016-11-18T16:01:47.583Z,16464
2016-11-18T16:02:58.265Z,17792
2016-11-18T16:04:09.411Z,23424
2016-11-18T16:05:20.123Z,23328
2016-11-18T16:06:30.986Z,24736
2016-11-18T16:07:41.637Z,24000
2016-11-18T16:08:52.734Z,18656
2016-11-18T16:10:04.216Z,16264
2016-11-18T16:11:14.945Z,16976
2016-11-18T16:12:26.206Z,15720
2016-11-18T16:13:36.940Z,13400
2016-11-18T16:15:02.617Z,11400
2016-11-18T16:16:13.876Z,10372
2016-11-18T16:17:24.600Z,11452
2016-11-18T16:18:35.701Z,12188
2016-11-18T16:19:46.819Z,14568
2016-11-18T16:20:57.630Z,16408
2016-11-18T16:22:08.402Z,18144
2016-11-18T16:23:20.079Z,21184
2016-11-18T16:24:31.209Z,24256
2016-11-18T16:25:42.374Z,24608
2016-11-18T16:26:54.883Z,20224
2016-11-18T16:28:05.571Z,20352